JVI weather

Central Jersey Regional Airport
Manville, New Jersey, United States

Public forecast

Using degrees Fahrenheit for public forecast. Weather courtesy of forecast.io.

METAR (pilot weather report)

Closest report is Somerset Airport, 6.9 nm (12.8 km) NNW. Retrieved 2019/09/17 17:53 UTC (23 minutes ago):

KSMQ 171753Z AUTO 03007KT 10SM CLR 25/06 A3011 RMK AO2 SLP196 T02500061 10250 20156 58014

TAF (pilot weather forecast)

Closest forecast is Trenton Mercer Airport, 17.8 nm (33.0 km) SSW. Retrieved 2019/09/17 18:36 UTC (0 seconds ago):

TAF KTTN 171732Z 1718/1818 05006KT P6SM SKC FM181000 05006KT P6SM SCT040 FM181500 06008KT P6SM BKN040